createdAt,value
2022-09-12T00:00:05.354Z,101455.69
2022-09-12T00:02:33.097Z,101452.47
2022-09-12T00:05:02.278Z,101450.41
2022-09-12T00:07:30.039Z,101452.72
2022-09-12T00:09:57.893Z,101450.28
2022-09-12T00:12:25.676Z,101447.09
2022-09-12T00:14:53.579Z,101445.84
2022-09-12T00:17:21.313Z,101446.19
2022-09-12T00:19:49.067Z,101439.44
2022-09-12T00:22:18.142Z,101448.34
2022-09-12T00:24:45.966Z,101441.28
2022-09-12T00:27:13.891Z,101442.75
2022-09-12T00:29:42.403Z,101434.88
2022-09-12T00:32:10.130Z,101438.75
2022-09-12T00:34:38.098Z,101439.09
2022-09-12T00:37:05.893Z,101439.41
2022-09-12T00:39:35.032Z,101435.09
2022-09-12T00:42:02.809Z,101434.28
2022-09-12T00:44:50.394Z,101424.34
2022-09-12T00:47:22.996Z,101425.47
2022-09-12T00:49:54.804Z,101426.63
2022-09-12T00:52:27.740Z,101428.13
2022-09-12T00:55:00.854Z,101431.19
2022-09-12T00:57:33.128Z,101426.38
2022-09-12T01:00:05.714Z,101414.63
2022-09-12T01:02:33.628Z,101418.06
2022-09-12T01:05:01.662Z,101414.53
2022-09-12T01:07:29.934Z,101411.28
2022-09-12T01:09:59.314Z,101424.19
2022-09-12T01:12:27.842Z,101420.22
2022-09-12T01:14:55.580Z,101417.03
2022-09-12T01:17:27.674Z,101418.16
2022-09-12T01:20:34.058Z,101412.44
2022-09-12T01:23:29.539Z,101419.88
2022-09-12T01:26:14.237Z,101416.19
2022-09-12T01:29:03.969Z,101418.47
2022-09-12T01:31:36.933Z,101413.78
2022-09-12T01:34:16.969Z,101410.56
2022-09-12T01:36:53.036Z,101409.78
2022-09-12T01:39:31.403Z,101409.66
2022-09-12T01:42:10.215Z,101405.34
2022-09-12T01:44:46.821Z,101403.75
2022-09-12T01:47:22.593Z,101405.50
2022-09-12T01:49:59.669Z,101410.19
2022-09-12T01:52:32.790Z,101400.72
2022-09-12T01:55:09.616Z,101390.88
2022-09-12T01:57:45.557Z,101392.72
2022-09-12T02:00:14.249Z,101390.63
2022-09-12T02:02:50.643Z,101392.47
2022-09-12T02:05:24.378Z,101389.59
2022-09-12T02:07:54.879Z,101385.25
2022-09-12T02:10:30.389Z,101378.50
2022-09-12T02:13:04.581Z,101380.81
2022-09-12T02:15:38.880Z,101374.84
2022-09-12T02:18:09.581Z,101377.13
2022-09-12T02:20:54.622Z,101371.19
2022-09-12T02:23:26.487Z,101369.91
2022-09-12T02:25:58.600Z,101370.25
2022-09-12T02:28:31.059Z,101376.06
2022-09-12T02:31:08.434Z,101377.56
2022-09-12T02:33:45.750Z,101371.16
2022-09-12T02:36:24.485Z,101362.47
2022-09-12T02:38:52.633Z,101364.72
2022-09-12T02:41:22.293Z,101368.59
2022-09-12T02:43:52.919Z,101360.38
2022-09-12T02:46:24.396Z,101365.41
2022-09-12T02:48:54.356Z,101362.22
2022-09-12T02:51:23.901Z,101369.94
2022-09-12T02:53:52.216Z,101366.75
2022-09-12T02:56:25.507Z,101351.47
2022-09-12T02:58:54.071Z,101349.88
2022-09-12T03:01:36.842Z,101357.13
2022-09-12T03:04:28.129Z,101355.88
2022-09-12T03:07:09.205Z,101350.75
2022-09-12T03:09:45.366Z,101360.91
2022-09-12T03:12:29.793Z,101361.56
2022-09-12T03:15:18.917Z,101353.56
2022-09-12T03:18:04.622Z,101354.38
2022-09-12T03:20:46.210Z,101354.38
2022-09-12T03:23:25.670Z,101348.41
2022-09-12T03:25:58.482Z,101350.69
2022-09-12T03:28:26.856Z,101351.81
2022-09-12T03:30:56.496Z,101352.97
2022-09-12T03:33:26.544Z,101348.63
2022-09-12T03:35:56.552Z,101347.84
2022-09-12T03:38:24.388Z,101346.56
2022-09-12T03:40:54.901Z,101352.03
2022-09-12T03:43:22.952Z,101341.75
2022-09-12T03:45:52.907Z,101351.91
2022-09-12T03:48:20.785Z,101336.94
2022-09-12T03:50:48.548Z,101350.16
2022-09-12T03:53:17.645Z,101343.88
2022-09-12T03:55:45.395Z,101349.69
2022-09-12T03:58:13.137Z,101346.47
2022-09-12T04:00:41.027Z,101333.94
2022-09-12T04:03:08.727Z,101340.53
2022-09-12T04:05:37.005Z,101340.09
2022-09-12T04:08:04.696Z,101333.03
2022-09-12T04:10:34.057Z,101333.03
2022-09-12T04:13:01.785Z,101338.03
2022-09-12T04:15:29.542Z,101337.53
2022-09-12T04:17:57.299Z,101338.69
2022-09-12T04:20:25.540Z,101332.72
2022-09-12T04:22:54.660Z,101331.94
2022-09-12T04:25:22.366Z,101329.53
2022-09-12T04:27:51.465Z,101327.91
2022-09-12T04:30:19.440Z,101326.31
2022-09-12T04:32:47.162Z,101317.63
2022-09-12T04:35:15.105Z,101321.50
2022-09-12T04:37:42.835Z,101324.25
2022-09-12T04:40:11.042Z,101324.59
2022-09-12T04:42:38.838Z,101326.03
2022-09-12T04:45:09.090Z,101318.63
2022-09-12T04:47:36.791Z,101318.97
2022-09-12T04:50:05.420Z,101324.44
2022-09-12T04:52:33.132Z,101318.16
2022-09-12T04:55:00.857Z,101310.31
2022-09-12T04:57:28.679Z,101308.72
2022-09-12T04:59:56.371Z,101316.91
2022-09-12T05:02:25.510Z,101307.09
2022-09-12T05:04:54.246Z,101301.16
2022-09-12T05:07:22.038Z,101302.28
2022-09-12T05:09:49.792Z,101306.16
2022-09-12T05:12:17.533Z,101301.81
2022-09-12T05:14:45.493Z,101303.44
2022-09-12T05:17:13.175Z,101299.91
2022-09-12T05:19:42.487Z,101304.56
2022-09-12T05:22:10.217Z,101310.03
2022-09-12T05:24:39.426Z,101306.16
2022-09-12T05:27:07.441Z,101301.50
2022-09-12T05:29:35.188Z,101303.88
2022-09-12T05:32:03.602Z,101297.28
2022-09-12T05:34:31.374Z,101302.44
2022-09-12T05:37:00.512Z,101300.97
2022-09-12T05:39:28.296Z,101298.69
2022-09-12T05:41:56.360Z,101299.63
2022-09-12T05:44:24.950Z,101293.47
2022-09-12T05:46:53.642Z,101293.63
2022-09-12T05:49:22.562Z,101298.44
2022-09-12T05:51:50.829Z,101291.53
2022-09-12T05:54:21.259Z,101294.72
2022-09-12T05:56:49.404Z,101306.56
2022-09-12T05:59:19.175Z,101294.97
2022-09-12T06:01:47.673Z,101292.72
2022-09-12T06:04:15.810Z,101299.13
2022-09-12T06:06:45.903Z,101310.19
2022-09-12T06:09:14.924Z,101311.13
2022-09-12T06:11:45.147Z,101309.63
2022-09-12T06:14:15.694Z,101310.59
2022-09-12T06:16:43.664Z,101312.63
2022-09-12T06:19:16.237Z,101311.28
2022-09-12T06:21:44.186Z,101311.09
2022-09-12T06:24:12.503Z,101320.66
2022-09-12T06:26:40.230Z,101319.31
2022-09-12T06:29:09.576Z,101317.16
2022-09-12T06:31:40.514Z,101316.63
2022-09-12T06:34:10.756Z,101307.50
2022-09-12T06:36:40.474Z,101309.34
2022-09-12T06:39:11.034Z,101298.75
2022-09-12T06:41:43.542Z,101296.88
2022-09-12T06:44:14.925Z,101299.72
2022-09-12T06:46:43.006Z,101309.84
2022-09-12T06:49:11.427Z,101314.44
2022-09-12T06:51:39.146Z,101308.47
2022-09-12T06:54:07.141Z,101300.13
2022-09-12T06:56:35.040Z,101308.69
2022-09-12T06:59:02.762Z,101303.88
2022-09-12T07:01:33.226Z,101308.84
2022-09-12T07:04:03.031Z,101307.47
2022-09-12T07:06:32.632Z,101308.38
2022-09-12T07:09:01.367Z,101310.31
2022-09-12T07:11:31.713Z,101308.81
2022-09-12T07:14:01.021Z,101308.19
2022-09-12T07:16:28.928Z,101307.47
2022-09-12T07:19:00.085Z,101308.81
2022-09-12T07:21:28.880Z,101314.16
2022-09-12T07:23:57.915Z,101305.13
2022-09-12T07:26:26.810Z,101308.31
2022-09-12T07:29:07.880Z,101298.47
2022-09-12T07:31:43.669Z,101301.41
2022-09-12T07:34:13.125Z,101299.13
2022-09-12T07:36:40.993Z,101301.53
2022-09-12T07:39:09.656Z,101298.88
2022-09-12T07:41:37.489Z,101293.94
2022-09-12T07:44:06.679Z,101293.31
2022-09-12T07:46:35.450Z,101297.06
2022-09-12T07:49:03.629Z,101303.53
2022-09-12T07:51:32.763Z,101305.56
2022-09-12T07:54:00.620Z,101306.47
2022-09-12T07:56:32.744Z,101306.66
2022-09-12T07:59:02.621Z,101300.44
2022-09-12T08:01:32.726Z,101306.09
2022-09-12T08:04:01.742Z,101302.06
2022-09-12T08:06:32.214Z,101308.81
2022-09-12T08:09:01.873Z,101310.03
2022-09-12T08:11:30.902Z,101305.97
2022-09-12T08:13:59.138Z,101298.59
2022-09-12T08:16:29.623Z,101303.19
2022-09-12T08:18:57.736Z,101313.72
2022-09-12T08:21:27.494Z,101312.63
2022-09-12T08:23:58.998Z,101319.25
2022-09-12T08:26:27.049Z,101328.19
2022-09-12T08:28:54.786Z,101310.81
2022-09-12T08:31:24.608Z,101306.00
2022-09-12T08:33:52.935Z,101301.88
2022-09-12T08:36:22.646Z,101303.25
2022-09-12T08:38:53.677Z,101301.69
2022-09-12T08:41:30.903Z,101298.41
2022-09-12T08:44:32.734Z,101303.78
2022-09-12T08:47:15.903Z,101299.25
2022-09-12T08:49:51.582Z,101297.22
2022-09-12T08:52:24.705Z,101293.78
2022-09-12T08:54:53.813Z,101302.69
2022-09-12T08:57:24.090Z,101300.06
2022-09-12T08:59:53.168Z,101301.22
2022-09-12T09:03:02.606Z,101299.75
2022-09-12T09:05:43.431Z,101295.16
2022-09-12T09:08:35.370Z,101315.94
2022-09-12T09:11:16.477Z,101306.47
2022-09-12T09:14:15.818Z,101302.22
2022-09-12T09:16:45.930Z,101303.16
2022-09-12T09:19:18.980Z,101304.06
2022-09-12T09:21:55.033Z,101300.66
2022-09-12T09:24:28.284Z,101300.44
2022-09-12T09:26:59.363Z,101297.94
2022-09-12T09:29:34.565Z,101301.63
2022-09-12T09:32:05.504Z,101286.44
2022-09-12T09:34:33.214Z,101281.84
2022-09-12T09:37:08.361Z,101286.75
2022-09-12T09:39:50.054Z,101286.06
2022-09-12T09:42:29.763Z,101288.53
2022-09-12T09:45:04.062Z,101277.50
2022-09-12T09:47:31.804Z,101270.78
2022-09-12T09:50:00.420Z,101275.19
2022-09-12T09:52:32.927Z,101271.22
2022-09-12T09:55:02.812Z,101268.84
2022-09-12T09:57:45.424Z,101270.44
2022-09-12T10:00:26.967Z,101265.66
2022-09-12T10:03:04.779Z,101262.50
2022-09-12T10:05:37.135Z,101259.28
2022-09-12T10:08:08.297Z,101254.47
2022-09-12T10:10:36.060Z,101256.81
2022-09-12T10:13:21.362Z,101244.94
2022-09-12T10:16:00.313Z,101248.03
2022-09-12T10:18:36.511Z,101240.41
2022-09-12T10:21:15.379Z,101239.28
2022-09-12T10:23:43.840Z,101232.50
2022-09-12T10:26:15.566Z,101219.34
2022-09-12T10:28:46.737Z,101230.44
2022-09-12T10:31:29.504Z,101230.34
2022-09-12T10:33:59.770Z,101223.50
2022-09-12T10:36:36.434Z,101218.28
2022-09-12T10:39:05.415Z,101211.81
2022-09-12T10:41:38.390Z,101216.16
2022-09-12T10:44:15.854Z,101217.66
2022-09-12T10:46:45.094Z,101204.47
2022-09-12T10:49:25.517Z,101213.19
2022-09-12T10:51:54.394Z,101202.03
2022-09-12T10:54:25.888Z,101203.94
2022-09-12T10:57:26.010Z,101204.66
2022-09-12T11:00:07.280Z,101188.94
2022-09-12T11:02:49.440Z,101192.63
2022-09-12T11:05:28.197Z,101193.19
2022-09-12T11:08:00.238Z,101198.56
2022-09-12T11:10:43.762Z,101189.81
2022-09-12T11:13:24.721Z,101182.34
2022-09-12T11:16:15.888Z,101189.50
2022-09-12T11:18:58.125Z,101176.66
2022-09-12T11:21:41.903Z,101179.34
2022-09-12T11:24:24.653Z,101181.56
2022-09-12T11:27:02.167Z,101179.38
2022-09-12T11:29:48.320Z,101176.50
2022-09-12T11:32:47.059Z,101170.91
2022-09-12T11:35:24.518Z,101177.50
2022-09-12T11:38:09.029Z,101162.38
2022-09-12T11:40:45.397Z,101156.25
2022-09-12T11:43:27.174Z,101150.97
2022-09-12T11:45:55.748Z,101147.94
2022-09-12T11:48:39.278Z,101152.00
2022-09-12T11:51:19.296Z,101155.22
2022-09-12T11:53:57.222Z,101148.69
2022-09-12T11:56:26.177Z,101148.63
2022-09-12T11:59:00.899Z,101151.53
2022-09-12T12:01:38.821Z,101149.78
2022-09-12T12:04:13.564Z,101145.78
2022-09-12T12:06:53.672Z,101144.13
2022-09-12T12:09:21.731Z,101137.59
2022-09-12T12:11:54.434Z,101141.47
2022-09-12T12:14:25.613Z,101141.34
2022-09-12T12:16:53.542Z,101136.31
2022-09-12T12:19:35.589Z,101133.19
2022-09-12T12:22:14.963Z,101133.97
2022-09-12T12:24:56.510Z,101128.00
2022-09-12T12:27:27.117Z,101125.09
2022-09-12T12:29:54.883Z,101125.91
2022-09-12T12:32:24.980Z,101125.91
2022-09-12T12:35:03.467Z,101124.53
2022-09-12T12:37:54.193Z,101110.69
2022-09-12T12:40:28.629Z,101118.56
2022-09-12T12:43:05.118Z,101107.75
2022-09-12T12:45:59.873Z,101108.59
2022-09-12T12:48:30.124Z,101105.31
2022-09-12T12:51:30.551Z,101100.63
2022-09-12T12:54:01.147Z,101088.81
2022-09-12T12:56:39.171Z,101082.31
2022-09-12T12:59:17.452Z,101086.63
2022-09-12T13:01:54.942Z,101089.00
2022-09-12T13:04:28.667Z,101089.63
2022-09-12T13:07:02.548Z,101089.53
2022-09-12T13:09:38.340Z,101088.31
2022-09-12T13:12:08.763Z,101084.81
2022-09-12T13:14:49.024Z,101074.59
2022-09-12T13:17:27.174Z,101073.16
2022-09-12T13:20:26.071Z,101078.25
2022-09-12T13:22:54.402Z,101066.66
2022-09-12T13:25:28.121Z,101070.63
2022-09-12T13:28:04.214Z,101059.47
2022-09-12T13:30:34.453Z,101059.06
2022-09-12T13:33:20.626Z,101060.38
2022-09-12T13:36:10.080Z,101048.69
2022-09-12T13:38:51.459Z,101050.97
2022-09-12T13:41:36.703Z,101060.53
2022-09-12T13:44:05.447Z,101048.69
2022-09-12T13:46:35.528Z,101051.44
2022-09-12T13:49:12.673Z,101041.78
2022-09-12T13:51:40.476Z,101044.38
2022-09-12T13:54:08.415Z,101046.66
2022-09-12T13:56:48.432Z,101041.88
2022-09-12T13:59:16.298Z,101047.72
2022-09-12T14:01:45.706Z,101038.41
2022-09-12T14:04:36.938Z,101040.84
2022-09-12T14:07:12.981Z,101032.69
2022-09-12T14:09:43.516Z,101031.28
2022-09-12T14:12:25.198Z,101024.72
2022-09-12T14:14:54.446Z,101024.81
2022-09-12T14:17:31.608Z,101020.72
2022-09-12T14:20:02.030Z,101023.69
2022-09-12T14:22:30.694Z,101020.06
2022-09-12T14:24:59.960Z,101015.16
2022-09-12T14:27:32.566Z,101019.44
2022-09-12T14:30:03.961Z,100997.72
2022-09-12T14:32:31.865Z,100996.47
2022-09-12T14:35:20.011Z,100993.06
2022-09-12T14:37:50.757Z,100983.47
2022-09-12T14:40:21.095Z,100971.78
2022-09-12T14:42:53.032Z,100967.75
2022-09-12T14:45:27.958Z,100985.75
2022-09-12T14:47:56.317Z,100990.09
2022-09-12T14:50:26.491Z,100980.31
2022-09-12T14:53:04.861Z,100971.75
2022-09-12T14:55:34.160Z,100968.09
2022-09-12T14:58:26.262Z,100976.50
2022-09-12T15:00:56.115Z,100964.78
2022-09-12T15:03:34.827Z,100967.03
2022-09-12T15:06:04.004Z,100966.88
2022-09-12T15:08:33.227Z,100966.97
2022-09-12T15:11:01.610Z,100956.59
2022-09-12T15:13:43.652Z,100960.28
2022-09-12T15:16:12.877Z,100969.63
2022-09-12T15:18:40.761Z,100970.06
2022-09-12T15:21:13.693Z,100968.56
2022-09-12T15:23:45.718Z,100963.13
2022-09-12T15:26:16.219Z,100964.00
2022-09-12T15:28:45.943Z,100964.00
2022-09-12T15:31:21.375Z,100955.19
2022-09-12T15:33:49.163Z,100949.16
2022-09-12T15:36:18.765Z,100939.13
2022-09-12T15:38:47.854Z,100937.50
2022-09-12T15:41:18.403Z,100941.50
2022-09-12T15:43:48.289Z,100940.72
2022-09-12T15:46:17.980Z,100939.09
2022-09-12T15:48:46.133Z,100934.41
2022-09-12T15:51:15.754Z,100933.66
2022-09-12T15:53:44.614Z,100940.03
2022-09-12T15:56:12.475Z,100938.41
2022-09-12T15:58:54.634Z,100928.03
2022-09-12T16:01:28.121Z,100924.94
2022-09-12T16:03:56.068Z,100923.03
2022-09-12T16:06:24.133Z,100921.09
2022-09-12T16:08:51.947Z,100912.88
2022-09-12T16:11:22.330Z,100904.66
2022-09-12T16:13:50.109Z,100907.00
2022-09-12T16:16:17.875Z,100901.41
2022-09-12T16:18:47.164Z,100893.19
2022-09-12T16:21:15.977Z,100900.13
2022-09-12T16:23:44.485Z,100898.66
2022-09-12T16:26:12.304Z,100889.06
2022-09-12T16:28:40.645Z,100896.22
2022-09-12T16:31:11.458Z,100886.63
2022-09-12T16:33:40.401Z,100896.56
2022-09-12T16:36:11.559Z,100890.56
2022-09-12T16:38:42.303Z,100896.56
2022-09-12T16:41:10.310Z,100892.22
2022-09-12T16:43:38.694Z,100892.22
2022-09-12T16:46:08.622Z,100889.13
2022-09-12T16:48:36.857Z,100888.84
2022-09-12T16:51:07.732Z,100889.31
2022-09-12T16:53:38.745Z,100883.00
2022-09-12T16:56:07.480Z,100876.00
2022-09-12T16:58:41.630Z,100870.56
2022-09-12T17:01:11.548Z,100871.91
2022-09-12T17:03:39.998Z,100868.47
2022-09-12T17:06:10.304Z,100874.09
2022-09-12T17:08:43.172Z,100865.38
2022-09-12T17:11:12.749Z,100863.47
2022-09-12T17:14:03.319Z,100863.16
2022-09-12T17:16:30.433Z,100864.84
2022-09-12T17:18:58.218Z,100861.75
2022-09-12T17:21:26.182Z,100860.63
2022-09-12T17:23:55.938Z,100867.91
2022-09-12T17:26:24.193Z,100860.88
2022-09-12T17:28:51.989Z,100857.44
2022-09-12T17:31:20.039Z,100851.19
2022-09-12T17:33:48.218Z,100854.44
2022-09-12T17:36:18.616Z,100852.94
2022-09-12T17:38:47.205Z,100856.63
2022-09-12T17:41:18.673Z,100853.94
2022-09-12T17:43:47.417Z,100846.88
2022-09-12T17:46:15.424Z,100852.53
2022-09-12T17:48:43.706Z,100853.84
2022-09-12T17:51:13.455Z,100846.41
2022-09-12T17:53:41.724Z,100850.06
2022-09-12T17:56:10.510Z,100834.69
2022-09-12T17:58:39.767Z,100834.78
2022-09-12T18:01:26.642Z,100844.41
2022-09-12T18:03:55.590Z,100846.16
2022-09-12T18:06:23.380Z,100842.22
2022-09-12T18:08:51.200Z,100855.84
2022-09-12T18:11:19.146Z,100851.94
2022-09-12T18:13:48.268Z,100856.78
2022-09-12T18:16:16.362Z,100853.66
2022-09-12T18:18:44.390Z,100860.88
2022-09-12T18:21:13.268Z,100853.78
2022-09-12T18:23:41.527Z,100845.53
2022-09-12T18:26:13.348Z,100836.06
2022-09-12T18:28:43.001Z,100832.53
2022-09-12T18:31:14.823Z,100826.25
2022-09-12T18:33:43.090Z,100837.44
2022-09-12T18:36:12.742Z,100840.63
2022-09-12T18:38:41.732Z,100846.25
2022-09-12T18:41:11.485Z,100836.78
2022-09-12T18:43:39.365Z,100844.72
2022-09-12T18:46:08.764Z,100838.84
2022-09-12T18:48:38.363Z,100833.72
2022-09-12T18:51:08.056Z,100831.78
2022-09-12T18:53:36.854Z,100829.06
2022-09-12T18:56:08.606Z,100828.69
2022-09-12T18:58:36.670Z,100822.75
2022-09-12T19:01:12.300Z,100818.06
2022-09-12T19:03:41.977Z,100824.44
2022-09-12T19:06:12.202Z,100821.28
2022-09-12T19:08:40.381Z,100805.09
2022-09-12T19:11:08.884Z,100805.50
2022-09-12T19:13:37.953Z,100807.94
2022-09-12T19:16:08.953Z,100810.31
2022-09-12T19:18:37.138Z,100816.66
2022-09-12T19:21:07.065Z,100817.47
2022-09-12T19:23:35.915Z,100824.63
2022-09-12T19:26:05.941Z,100829.41
2022-09-12T19:28:34.424Z,100823.06
2022-09-12T19:31:05.468Z,100820.28
2022-09-12T19:33:33.500Z,100817.56
2022-09-12T19:36:03.248Z,100818.34
2022-09-12T19:38:33.732Z,100812.00
2022-09-12T19:41:03.459Z,100809.63
2022-09-12T19:43:32.168Z,100817.59
2022-09-12T19:46:00.078Z,100816.78
2022-09-12T19:48:27.956Z,100817.97
2022-09-12T19:50:59.896Z,100820.00
2022-09-12T19:53:28.290Z,100822.34
2022-09-12T19:56:02.190Z,100823.16
2022-09-12T19:58:30.306Z,100821.19
2022-09-12T20:01:07.707Z,100813.66
2022-09-12T20:03:35.599Z,100814.06
2022-09-12T20:06:03.851Z,100814.50
2022-09-12T20:08:31.593Z,100821.19
2022-09-12T20:11:00.786Z,100821.22
2022-09-12T20:13:29.014Z,100825.16
2022-09-12T20:15:56.856Z,100816.84
2022-09-12T20:18:24.695Z,100810.94
2022-09-12T20:20:52.452Z,100814.88
2022-09-12T20:23:20.240Z,100815.25
2022-09-12T20:25:48.061Z,100808.16
2022-09-12T20:28:17.207Z,100810.91
2022-09-12T20:30:45.086Z,100800.25
2022-09-12T20:33:12.858Z,100797.88
2022-09-12T20:35:44.326Z,100793.13
2022-09-12T20:38:12.381Z,100792.34
2022-09-12T20:40:40.516Z,100791.53
2022-09-12T20:43:08.248Z,100781.28
2022-09-12T20:45:41.516Z,100784.81
2022-09-12T20:48:09.332Z,100777.31
2022-09-12T20:50:37.162Z,100772.56
2022-09-12T20:53:05.338Z,100762.31
2022-09-12T20:55:33.244Z,100757.16
2022-09-12T20:58:01.034Z,100760.34
2022-09-12T21:00:30.121Z,100753.59
2022-09-12T21:02:59.310Z,100753.22
2022-09-12T21:05:27.055Z,100754.38
2022-09-12T21:07:54.816Z,100747.28
2022-09-12T21:10:22.604Z,100733.84
2022-09-12T21:12:50.371Z,100742.53
2022-09-12T21:15:18.311Z,100744.47
2022-09-12T21:17:47.515Z,100736.97
2022-09-12T21:20:16.883Z,100740.13
2022-09-12T21:22:44.698Z,100732.97
2022-09-12T21:25:12.725Z,100745.59
2022-09-12T21:27:40.501Z,100734.94
2022-09-12T21:30:11.368Z,100735.34
2022-09-12T21:32:39.211Z,100731.78
2022-09-12T21:35:08.510Z,100726.22
2022-09-12T21:37:37.690Z,100733.69
2022-09-12T21:40:06.069Z,100738.44
2022-09-12T21:42:33.857Z,100739.22
2022-09-12T21:45:01.628Z,100752.63
2022-09-12T21:47:29.370Z,100751.81
2022-09-12T21:49:57.672Z,100752.56
2022-09-12T21:52:25.420Z,100751.00
2022-09-12T21:54:54.504Z,100742.28
2022-09-12T21:57:22.285Z,100740.72
2022-09-12T21:59:50.129Z,100749.00
2022-09-12T22:02:17.991Z,100750.13
2022-09-12T22:04:45.791Z,100759.59
2022-09-12T22:07:13.550Z,100760.78
2022-09-12T22:09:41.332Z,100764.66
2022-09-12T22:12:10.542Z,100757.16
2022-09-12T22:14:38.829Z,100758.31
2022-09-12T22:17:08.117Z,100769.78
2022-09-12T22:19:37.827Z,100772.53
2022-09-12T22:22:26.505Z,100768.19
2022-09-12T22:24:54.253Z,100777.63
2022-09-12T22:27:23.420Z,100776.84
2022-09-12T22:29:52.016Z,100776.78
2022-09-12T22:32:20.246Z,100779.16
2022-09-12T22:34:48.191Z,100781.53
2022-09-12T22:37:15.983Z,100776.75
2022-09-12T22:39:43.777Z,100772.84
2022-09-12T22:42:11.651Z,100771.22
2022-09-12T22:44:40.720Z,100770.44
2022-09-12T22:47:08.475Z,100764.13
2022-09-12T22:49:36.243Z,100760.59
2022-09-12T22:52:04.026Z,100768.88
2022-09-12T22:54:31.783Z,100771.97
2022-09-12T22:56:59.647Z,100776.69
2022-09-12T22:59:27.443Z,100774.34
2022-09-12T23:01:56.922Z,100783.78
2022-09-12T23:04:24.620Z,100788.47
2022-09-12T23:06:52.376Z,100782.94
2022-09-12T23:09:20.215Z,100780.19
2022-09-12T23:11:47.997Z,100790.00
2022-09-12T23:14:15.715Z,100780.13
2022-09-12T23:16:43.499Z,100782.06
2022-09-12T23:19:13.136Z,100771.41
2022-09-12T23:21:41.045Z,100774.56
2022-09-12T23:24:08.786Z,100764.69
2022-09-12T23:26:36.917Z,100761.56
2022-09-12T23:29:05.676Z,100758.03
2022-09-12T23:31:34.906Z,100756.84
2022-09-12T23:34:06.157Z,100751.31
2022-09-12T23:36:35.613Z,100744.22
2022-09-12T23:39:03.397Z,100738.72
2022-09-12T23:41:31.271Z,100756.06
2022-09-12T23:43:59.018Z,100749.78
2022-09-12T23:46:26.837Z,100756.88
2022-09-12T23:48:54.598Z,100752.56
2022-09-12T23:51:22.780Z,100753.69
2022-09-12T23:53:51.927Z,100742.72
2022-09-12T23:56:19.722Z,100723.00
2022-09-12T23:58:47.617Z,100736.38
